sensor_id;sensor_type;location;lat;lon;timestamp;pressure;altitude;pressure_sealevel;temperature;humidity
47726;BME280;33483;48.294;16.388;2023-03-11T00:01:04;97513.25;;;9.10;64.61
47726;BME280;33483;48.294;16.388;2023-03-11T00:03:31;97499.69;;;9.05;65.06
47726;BME280;33483;48.294;16.388;2023-03-11T00:05:59;97500.66;;;9.00;65.32
47726;BME280;33483;48.294;16.388;2023-03-11T00:08:26;97504.38;;;8.95;65.28
47726;BME280;33483;48.294;16.388;2023-03-11T00:10:55;97495.75;;;8.91;65.39
47726;BME280;33483;48.294;16.388;2023-03-11T00:13:24;97501.66;;;8.87;65.86
47726;BME280;33483;48.294;16.388;2023-03-11T00:15:52;97509.97;;;8.87;65.41
47726;BME280;33483;48.294;16.388;2023-03-11T00:18:23;97517.94;;;8.83;66.76
47726;BME280;33483;48.294;16.388;2023-03-11T00:20:54;97514.59;;;8.85;66.57
47726;BME280;33483;48.294;16.388;2023-03-11T00:23:22;97516.34;;;8.73;67.60
47726;BME280;33483;48.294;16.388;2023-03-11T00:25:49;97521.47;;;8.76;67.13
47726;BME280;33483;48.294;16.388;2023-03-11T00:28:16;97519.03;;;8.80;66.41
47726;BME280;33483;48.294;16.388;2023-03-11T00:30:46;97539.09;;;8.81;67.79
47726;BME280;33483;48.294;16.388;2023-03-11T00:33:14;97543.19;;;8.80;68.18
47726;BME280;33483;48.294;16.388;2023-03-11T00:35:42;97553.84;;;8.83;68.40
47726;BME280;33483;48.294;16.388;2023-03-11T00:38:10;97551.56;;;8.89;68.56
47726;BME280;33483;48.294;16.388;2023-03-11T00:40:38;97559.28;;;8.91;68.93
47726;BME280;33483;48.294;16.388;2023-03-11T00:43:05;97562.63;;;8.89;69.34
47726;BME280;33483;48.294;16.388;2023-03-11T00:45:34;97595.44;;;8.85;70.65
47726;BME280;33483;48.294;16.388;2023-03-11T00:48:02;97592.13;;;8.87;69.96
47726;BME280;33483;48.294;16.388;2023-03-11T00:50:31;97604.63;;;8.88;71.64
47726;BME280;33483;48.294;16.388;2023-03-11T00:52:58;97607.03;;;8.84;73.51
47726;BME280;33483;48.294;16.388;2023-03-11T00:55:26;97613.00;;;8.73;77.97
47726;BME280;33483;48.294;16.388;2023-03-11T00:57:56;97627.97;;;8.62;80.42
47726;BME280;33483;48.294;16.388;2023-03-11T01:00:26;97624.19;;;8.50;84.08
47726;BME280;33483;48.294;16.388;2023-03-11T01:02:54;97609.66;;;8.42;85.88
47726;BME280;33483;48.294;16.388;2023-03-11T01:05:24;97611.72;;;8.34;89.71
47726;BME280;33483;48.294;16.388;2023-03-11T01:07:51;97615.25;;;8.27;91.67
47726;BME280;33483;48.294;16.388;2023-03-11T01:10:19;97627.78;;;8.21;95.40
47726;BME280;33483;48.294;16.388;2023-03-11T01:12:46;97629.97;;;8.15;95.45
47726;BME280;33483;48.294;16.388;2023-03-11T01:15:15;97627.28;;;8.07;97.75
47726;BME280;33483;48.294;16.388;2023-03-11T01:17:43;97631.13;;;8.04;99.73
47726;BME280;33483;48.294;16.388;2023-03-11T01:20:10;97646.78;;;8.02;96.88
47726;BME280;33483;48.294;16.388;2023-03-11T01:22:38;97643.09;;;7.99;98.38
47726;BME280;33483;48.294;16.388;2023-03-11T01:25:05;97655.44;;;7.90;99.14
47726;BME280;33483;48.294;16.388;2023-03-11T01:27:33;97635.19;;;7.88;86.51
47726;BME280;33483;48.294;16.388;2023-03-11T01:30:00;97649.56;;;7.86;81.86
47726;BME280;33483;48.294;16.388;2023-03-11T01:32:30;97639.06;;;7.85;73.37
47726;BME280;33483;48.294;16.388;2023-03-11T01:34:57;97640.38;;;7.84;67.58
47726;BME280;33483;48.294;16.388;2023-03-11T01:37:24;97633.22;;;7.81;65.45
47726;BME280;33483;48.294;16.388;2023-03-11T01:39:52;97642.41;;;7.76;62.40
47726;BME280;33483;48.294;16.388;2023-03-11T01:42:19;97634.34;;;7.70;61.58
47726;BME280;33483;48.294;16.388;2023-03-11T01:44:46;97641.88;;;7.62;61.43
47726;BME280;33483;48.294;16.388;2023-03-11T01:47:30;97649.59;;;7.64;59.93
47726;BME280;33483;48.294;16.388;2023-03-11T01:49:58;97643.88;;;7.69;59.28
47726;BME280;33483;48.294;16.388;2023-03-11T01:52:26;97665.56;;;7.73;58.75
47726;BME280;33483;48.294;16.388;2023-03-11T01:54:54;97657.13;;;7.71;58.49
47726;BME280;33483;48.294;16.388;2023-03-11T01:57:23;97671.66;;;7.71;59.17
47726;BME280;33483;48.294;16.388;2023-03-11T01:59:52;97674.03;;;7.67;59.61
47726;BME280;33483;48.294;16.388;2023-03-11T02:02:27;97689.28;;;7.61;59.90
47726;BME280;33483;48.294;16.388;2023-03-11T02:04:59;97686.38;;;7.51;59.76
47726;BME280;33483;48.294;16.388;2023-03-11T02:07:27;97699.94;;;7.42;59.57
47726;BME280;33483;48.294;16.388;2023-03-11T02:09:55;97709.88;;;7.37;57.16
47726;BME280;33483;48.294;16.388;2023-03-11T02:12:22;97700.13;;;7.36;56.23
47726;BME280;33483;48.294;16.388;2023-03-11T02:14:50;97685.81;;;7.30;53.90
47726;BME280;33483;48.294;16.388;2023-03-11T02:17:19;97695.50;;;7.24;53.33
47726;BME280;33483;48.294;16.388;2023-03-11T02:22:41;97687.06;;;7.14;53.57
47726;BME280;33483;48.294;16.388;2023-03-11T02:27:55;97690.31;;;6.98;53.16
47726;BME280;33483;48.294;16.388;2023-03-11T02:30:25;97680.41;;;6.95;52.83
47726;BME280;33483;48.294;16.388;2023-03-11T02:32:53;97687.03;;;6.92;52.75
47726;BME280;33483;48.294;16.388;2023-03-11T02:35:21;97684.78;;;6.82;53.35
47726;BME280;33483;48.294;16.388;2023-03-11T02:37:50;97700.22;;;6.78;53.92
47726;BME280;33483;48.294;16.388;2023-03-11T02:42:53;97705.28;;;6.66;55.07
47726;BME280;33483;48.294;16.388;2023-03-11T02:45:23;97709.88;;;6.64;54.29
47726;BME280;33483;48.294;16.388;2023-03-11T02:47:53;97718.09;;;6.56;54.47
47726;BME280;33483;48.294;16.388;2023-03-11T02:50:21;97700.13;;;6.55;54.52
47726;BME280;33483;48.294;16.388;2023-03-11T02:52:51;97705.06;;;6.49;52.92
47726;BME280;33483;48.294;16.388;2023-03-11T02:55:21;97711.66;;;6.46;52.07
47726;BME280;33483;48.294;16.388;2023-03-11T02:57:48;97717.50;;;6.43;51.78
47726;BME280;33483;48.294;16.388;2023-03-11T03:00:16;97714.69;;;6.35;51.52
47726;BME280;33483;48.294;16.388;2023-03-11T03:02:51;97721.44;;;6.27;51.39
47726;BME280;33483;48.294;16.388;2023-03-11T03:05:20;97722.16;;;6.20;51.63
47726;BME280;33483;48.294;16.388;2023-03-11T03:07:49;97718.28;;;6.15;51.17
47726;BME280;33483;48.294;16.388;2023-03-11T03:10:17;97724.84;;;6.12;51.17
47726;BME280;33483;48.294;16.388;2023-03-11T03:12:45;97736.94;;;6.09;52.02
47726;BME280;33483;48.294;16.388;2023-03-11T03:15:15;97739.81;;;6.04;52.69
47726;BME280;33483;48.294;16.388;2023-03-11T03:17:43;97751.16;;;6.00;54.83
47726;BME280;33483;48.294;16.388;2023-03-11T03:20:11;97751.13;;;5.93;55.28
47726;BME280;33483;48.294;16.388;2023-03-11T03:22:43;97758.22;;;5.88;55.86
47726;BME280;33483;48.294;16.388;2023-03-11T03:25:13;97767.34;;;5.83;55.74
47726;BME280;33483;48.294;16.388;2023-03-11T03:27:40;97758.66;;;5.79;55.16
47726;BME280;33483;48.294;16.388;2023-03-11T03:30:08;97767.78;;;5.74;55.40
47726;BME280;33483;48.294;16.388;2023-03-11T03:32:36;97766.34;;;5.73;54.12
47726;BME280;33483;48.294;16.388;2023-03-11T03:35:06;97766.13;;;5.71;53.35
47726;BME280;33483;48.294;16.388;2023-03-11T03:37:52;97763.72;;;5.67;52.50
47726;BME280;33483;48.294;16.388;2023-03-11T03:40:21;97762.59;;;5.63;52.36
47726;BME280;33483;48.294;16.388;2023-03-11T03:42:50;97772.44;;;5.58;52.35
47726;BME280;33483;48.294;16.388;2023-03-11T03:45:20;97782.28;;;5.54;52.45
47726;BME280;33483;48.294;16.388;2023-03-11T03:47:50;97778.53;;;5.44;53.26
47726;BME280;33483;48.294;16.388;2023-03-11T03:50:19;97774.03;;;5.33;52.97
47726;BME280;33483;48.294;16.388;2023-03-11T03:52:48;97783.44;;;5.25;52.02
47726;BME280;33483;48.294;16.388;2023-03-11T03:55:15;97776.22;;;5.14;50.24
47726;BME280;33483;48.294;16.388;2023-03-11T03:57:45;97790.28;;;5.11;50.83
47726;BME280;33483;48.294;16.388;2023-03-11T04:00:13;97791.97;;;5.01;51.54
47726;BME280;33483;48.294;16.388;2023-03-11T04:02:43;97783.69;;;4.93;51.68
47726;BME280;33483;48.294;16.388;2023-03-11T04:05:20;97784.72;;;4.90;51.90
47726;BME280;33483;48.294;16.388;2023-03-11T04:07:47;97791.06;;;4.85;50.99
47726;BME280;33483;48.294;16.388;2023-03-11T04:10:14;97799.00;;;4.76;51.41
47726;BME280;33483;48.294;16.388;2023-03-11T04:12:42;97796.06;;;4.74;49.64
47726;BME280;33483;48.294;16.388;2023-03-11T04:15:09;97799.97;;;4.65;50.40
47726;BME280;33483;48.294;16.388;2023-03-11T04:17:37;97809.25;;;4.62;49.68
47726;BME280;33483;48.294;16.388;2023-03-11T04:20:04;97798.41;;;4.56;50.26
47726;BME280;33483;48.294;16.388;2023-03-11T04:22:36;97794.69;;;4.54;49.66
47726;BME280;33483;48.294;16.388;2023-03-11T04:25:04;97809.78;;;4.47;49.71
47726;BME280;33483;48.294;16.388;2023-03-11T04:27:32;97808.31;;;4.46;50.51
47726;BME280;33483;48.294;16.388;2023-03-11T04:30:01;97811.38;;;4.43;50.71
47726;BME280;33483;48.294;16.388;2023-03-11T04:32:29;97813.47;;;4.37;50.76
47726;BME280;33483;48.294;16.388;2023-03-11T04:34:57;97804.59;;;4.31;50.54
47726;BME280;33483;48.294;16.388;2023-03-11T04:37:27;97816.09;;;4.29;50.44
47726;BME280;33483;48.294;16.388;2023-03-11T04:39:56;97804.94;;;4.27;50.47
47726;BME280;33483;48.294;16.388;2023-03-11T04:42:23;97807.34;;;4.31;49.92
47726;BME280;33483;48.294;16.388;2023-03-11T04:44:51;97824.66;;;4.26;49.72
47726;BME280;33483;48.294;16.388;2023-03-11T04:47:22;97825.06;;;4.17;50.47
47726;BME280;33483;48.294;16.388;2023-03-11T04:49:49;97818.31;;;4.18;50.14
47726;BME280;33483;48.294;16.388;2023-03-11T04:52:16;97815.16;;;4.14;49.86
47726;BME280;33483;48.294;16.388;2023-03-11T04:54:43;97833.19;;;4.09;50.51
47726;BME280;33483;48.294;16.388;2023-03-11T04:57:10;97817.66;;;4.12;50.13
47726;BME280;33483;48.294;16.388;2023-03-11T04:59:41;97824.75;;;4.07;50.08
47726;BME280;33483;48.294;16.388;2023-03-11T05:02:09;97830.75;;;4.06;50.56
47726;BME280;33483;48.294;16.388;2023-03-11T05:04:42;97818.38;;;3.99;50.91
47726;BME280;33483;48.294;16.388;2023-03-11T05:07:13;97833.88;;;3.97;50.50
47726;BME280;33483;48.294;16.388;2023-03-11T05:09:40;97827.13;;;3.98;49.77
47726;BME280;33483;48.294;16.388;2023-03-11T05:12:09;97828.94;;;3.95;50.20
47726;BME280;33483;48.294;16.388;2023-03-11T05:14:39;97830.00;;;3.92;50.51
47726;BME280;33483;48.294;16.388;2023-03-11T05:17:07;97831.31;;;3.86;51.60
47726;BME280;33483;48.294;16.388;2023-03-11T05:19:36;97814.56;;;3.89;50.99
47726;BME280;33483;48.294;16.388;2023-03-11T05:22:11;97816.16;;;3.98;50.13
47726;BME280;33483;48.294;16.388;2023-03-11T05:24:40;97819.88;;;4.00;49.76
47726;BME280;33483;48.294;16.388;2023-03-11T05:27:07;97824.91;;;3.96;50.83
47726;BME280;33483;48.294;16.388;2023-03-11T05:29:37;97835.78;;;4.02;50.19
47726;BME280;33483;48.294;16.388;2023-03-11T05:32:07;97835.06;;;4.01;50.28
47726;BME280;33483;48.294;16.388;2023-03-11T05:34:35;97823.88;;;3.99;50.69
47726;BME280;33483;48.294;16.388;2023-03-11T05:37:03;97827.25;;;4.05;50.76
47726;BME280;33483;48.294;16.388;2023-03-11T05:39:33;97828.09;;;4.13;50.19
47726;BME280;33483;48.294;16.388;2023-03-11T05:42:00;97824.03;;;4.20;50.71
47726;BME280;33483;48.294;16.388;2023-03-11T05:44:27;97838.25;;;4.31;49.26
47726;BME280;33483;48.294;16.388;2023-03-11T05:46:55;97820.34;;;4.43;48.99
47726;BME280;33483;48.294;16.388;2023-03-11T05:49:22;97826.16;;;4.53;48.72
47726;BME280;33483;48.294;16.388;2023-03-11T05:51:51;97818.00;;;4.60;48.66
47726;BME280;33483;48.294;16.388;2023-03-11T05:54:24;97799.66;;;4.69;48.75
47726;BME280;33483;48.294;16.388;2023-03-11T05:56:53;97812.94;;;4.78;48.76
47726;BME280;33483;48.294;16.388;2023-03-11T05:59:23;97800.91;;;4.81;48.49
47726;BME280;33483;48.294;16.388;2023-03-11T06:01:55;97803.00;;;4.88;48.22
47726;BME280;33483;48.294;16.388;2023-03-11T06:04:23;97794.97;;;4.90;48.35
47726;BME280;33483;48.294;16.388;2023-03-11T06:06:53;97805.63;;;4.93;46.81
47726;BME280;33483;48.294;16.388;2023-03-11T06:09:23;97798.44;;;5.03;47.01
47726;BME280;33483;48.294;16.388;2023-03-11T06:11:52;97796.28;;;5.09;46.58
47726;BME280;33483;48.294;16.388;2023-03-11T06:14:22;97801.66;;;5.15;46.58
47726;BME280;33483;48.294;16.388;2023-03-11T06:16:50;97811.50;;;5.44;46.00
47726;BME280;33483;48.294;16.388;2023-03-11T06:19:19;97803.66;;;5.48;46.38
47726;BME280;33483;48.294;16.388;2023-03-11T06:21:50;97819.25;;;5.53;45.55
47726;BME280;33483;48.294;16.388;2023-03-11T06:24:17;97819.44;;;5.68;46.03
47726;BME280;33483;48.294;16.388;2023-03-11T06:26:45;97830.47;;;5.55;46.39
47726;BME280;33483;48.294;16.388;2023-03-11T06:29:19;97827.50;;;5.53;46.39
47726;BME280;33483;48.294;16.388;2023-03-11T06:31:50;97829.25;;;5.63;45.48
47726;BME280;33483;48.294;16.388;2023-03-11T06:34:23;97813.97;;;5.55;46.01
47726;BME280;33483;48.294;16.388;2023-03-11T06:36:51;97828.25;;;5.74;45.98
47726;BME280;33483;48.294;16.388;2023-03-11T06:39:18;97831.31;;;6.04;45.77
47726;BME280;33483;48.294;16.388;2023-03-11T06:41:47;97829.69;;;6.09;45.94
47726;BME280;33483;48.294;16.388;2023-03-11T06:44:17;97826.13;;;6.21;45.34
47726;BME280;33483;48.294;16.388;2023-03-11T06:46:45;97833.59;;;6.41;44.62
47726;BME280;33483;48.294;16.388;2023-03-11T06:49:14;97837.41;;;6.66;44.79
47726;BME280;33483;48.294;16.388;2023-03-11T06:51:42;97849.09;;;7.23;43.70
47726;BME280;33483;48.294;16.388;2023-03-11T06:54:13;97857.91;;;7.22;43.24
47726;BME280;33483;48.294;16.388;2023-03-11T06:56:41;97847.78;;;6.81;43.45
47726;BME280;33483;48.294;16.388;2023-03-11T06:59:09;97856.72;;;7.02;43.72
47726;BME280;33483;48.294;16.388;2023-03-11T07:01:36;97862.34;;;7.40;42.97
47726;BME280;33483;48.294;16.388;2023-03-11T07:04:05;97847.25;;;7.26;42.31
47726;BME280;33483;48.294;16.388;2023-03-11T07:06:37;97866.09;;;7.07;42.59
47726;BME280;33483;48.294;16.388;2023-03-11T07:09:08;97850.44;;;7.45;42.43
47726;BME280;33483;48.294;16.388;2023-03-11T07:11:39;97834.50;;;7.73;40.17
47726;BME280;33483;48.294;16.388;2023-03-11T07:14:11;97852.56;;;8.20;39.03
47726;BME280;33483;48.294;16.388;2023-03-11T07:16:42;97855.69;;;8.16;40.33
47726;BME280;33483;48.294;16.388;2023-03-11T07:19:20;97860.09;;;8.64;39.28
47726;BME280;33483;48.294;16.388;2023-03-11T07:21:47;97879.06;;;8.53;39.29
47726;BME280;33483;48.294;16.388;2023-03-11T07:24:15;97871.72;;;8.55;39.21
47726;BME280;33483;48.294;16.388;2023-03-11T07:26:42;97888.19;;;9.00;39.70
47726;BME280;33483;48.294;16.388;2023-03-11T07:29:12;97887.94;;;9.29;38.59
47726;BME280;33483;48.294;16.388;2023-03-11T07:31:39;97900.72;;;10.20;36.82
47726;BME280;33483;48.294;16.388;2023-03-11T07:34:10;97908.25;;;10.52;35.75
47726;BME280;33483;48.294;16.388;2023-03-11T07:36:40;97916.09;;;10.63;35.25
47726;BME280;33483;48.294;16.388;2023-03-11T07:39:09;97917.47;;;11.13;34.96
47726;BME280;33483;48.294;16.388;2023-03-11T07:41:38;97923.09;;;10.64;34.53
47726;BME280;33483;48.294;16.388;2023-03-11T07:44:05;97922.59;;;11.34;33.65
47726;BME280;33483;48.294;16.388;2023-03-11T07:46:35;97945.81;;;11.90;32.78
47726;BME280;33483;48.294;16.388;2023-03-11T07:49:03;97957.19;;;13.38;31.04
47726;BME280;33483;48.294;16.388;2023-03-11T07:51:31;97966.81;;;13.76;29.96
47726;BME280;33483;48.294;16.388;2023-03-11T07:53:59;97973.72;;;14.03;29.11
47726;BME280;33483;48.294;16.388;2023-03-11T07:56:27;97979.06;;;13.06;30.06
47726;BME280;33483;48.294;16.388;2023-03-11T07:58:56;97972.25;;;13.35;30.35
47726;BME280;33483;48.294;16.388;2023-03-11T08:01:24;97985.44;;;13.44;29.46
47726;BME280;33483;48.294;16.388;2023-03-11T08:03:52;97987.50;;;13.53;29.21
47726;BME280;33483;48.294;16.388;2023-03-11T08:06:25;98003.69;;;13.09;29.21
47726;BME280;33483;48.294;16.388;2023-03-11T08:08:58;98015.84;;;13.14;29.72
47726;BME280;33483;48.294;16.388;2023-03-11T08:11:25;98008.72;;;12.84;29.82
47726;BME280;33483;48.294;16.388;2023-03-11T08:13:52;98017.94;;;13.32;30.35
47726;BME280;33483;48.294;16.388;2023-03-11T08:16:20;98035.41;;;14.28;28.73
47726;BME280;33483;48.294;16.388;2023-03-11T08:18:48;98030.97;;;13.39;29.52
47726;BME280;33483;48.294;16.388;2023-03-11T08:21:17;98026.59;;;13.36;29.83
47726;BME280;33483;48.294;16.388;2023-03-11T08:23:45;98039.41;;;13.13;30.60
47726;BME280;33483;48.294;16.388;2023-03-11T08:26:15;98039.31;;;12.58;31.06
47726;BME280;33483;48.294;16.388;2023-03-11T08:28:46;98048.56;;;12.60;31.57
47726;BME280;33483;48.294;16.388;2023-03-11T08:31:13;98048.03;;;11.84;31.57
47726;BME280;33483;48.294;16.388;2023-03-11T08:33:42;98044.53;;;10.51;32.78
47726;BME280;33483;48.294;16.388;2023-03-11T08:36:09;98058.91;;;10.25;34.75
47726;BME280;33483;48.294;16.388;2023-03-11T08:38:37;98036.47;;;10.94;34.07
47726;BME280;33483;48.294;16.388;2023-03-11T08:41:04;98059.53;;;10.00;34.69
47726;BME280;33483;48.294;16.388;2023-03-11T08:43:31;98070.50;;;9.68;35.17
47726;BME280;33483;48.294;16.388;2023-03-11T08:46:01;98050.06;;;9.56;35.15
47726;BME280;33483;48.294;16.388;2023-03-11T08:48:33;98035.56;;;8.95;35.92
47726;BME280;33483;48.294;16.388;2023-03-11T08:51:00;98064.28;;;8.85;36.45
47726;BME280;33483;48.294;16.388;2023-03-11T08:53:31;98082.34;;;9.16;36.69
47726;BME280;33483;48.294;16.388;2023-03-11T08:55:58;98067.94;;;8.65;36.96
47726;BME280;33483;48.294;16.388;2023-03-11T08:58:25;98070.09;;;8.36;38.06
47726;BME280;33483;48.294;16.388;2023-03-11T09:00:52;98091.66;;;8.53;37.40
47726;BME280;33483;48.294;16.388;2023-03-11T09:03:21;98070.34;;;7.74;38.42
47726;BME280;33483;48.294;16.388;2023-03-11T09:06:00;98078.00;;;7.61;38.86
47726;BME280;33483;48.294;16.388;2023-03-11T09:08:28;98077.22;;;7.81;39.36
47726;BME280;33483;48.294;16.388;2023-03-11T09:10:58;98081.59;;;8.12;38.57
47726;BME280;33483;48.294;16.388;2023-03-11T09:13:25;98081.69;;;7.99;39.09
47726;BME280;33483;48.294;16.388;2023-03-11T09:15:54;98067.84;;;8.27;39.01
47726;BME280;33483;48.294;16.388;2023-03-11T09:18:22;98074.09;;;7.84;40.11
47726;BME280;33483;48.294;16.388;2023-03-11T09:20:49;98085.28;;;7.79;39.41
47726;BME280;33483;48.294;16.388;2023-03-11T09:23:17;98093.09;;;7.39;41.23
47726;BME280;33483;48.294;16.388;2023-03-11T09:25:44;98107.03;;;7.90;40.09
47726;BME280;33483;48.294;16.388;2023-03-11T09:28:11;98127.63;;;7.61;40.61
47726;BME280;33483;48.294;16.388;2023-03-11T09:30:38;98115.59;;;8.07;40.42
47726;BME280;33483;48.294;16.388;2023-03-11T09:33:05;98112.13;;;7.78;39.26
47726;BME280;33483;48.294;16.388;2023-03-11T09:35:32;98120.03;;;8.18;40.05
47726;BME280;33483;48.294;16.388;2023-03-11T09:38:00;98142.72;;;8.24;39.91
47726;BME280;33483;48.294;16.388;2023-03-11T09:40:31;98122.56;;;8.08;39.37
47726;BME280;33483;48.294;16.388;2023-03-11T09:43:07;98139.53;;;8.12;39.53
47726;BME280;33483;48.294;16.388;2023-03-11T09:45:37;98153.25;;;8.33;40.13
47726;BME280;33483;48.294;16.388;2023-03-11T09:55:51;98191.75;;;8.46;41.22
47726;BME280;33483;48.294;16.388;2023-03-11T10:00:46;98203.19;;;7.86;41.49
47726;BME280;33483;48.294;16.388;2023-03-11T10:03:23;98173.44;;;7.92;42.45
47726;BME280;33483;48.294;16.388;2023-03-11T10:05:51;98212.38;;;8.17;41.31
47726;BME280;33483;48.294;16.388;2023-03-11T10:08:22;98204.75;;;8.30;40.99
47726;BME280;33483;48.294;16.388;2023-03-11T10:10:53;98192.50;;;7.82;40.98
47726;BME280;33483;48.294;16.388;2023-03-11T10:13:28;98215.63;;;7.79;41.61
47726;BME280;33483;48.294;16.388;2023-03-11T10:16:09;98236.19;;;7.99;41.41
47726;BME280;33483;48.294;16.388;2023-03-11T10:26:25;98254.84;;;7.85;38.78
47726;BME280;33483;48.294;16.388;2023-03-11T10:29:00;98251.84;;;8.04;39.07
47726;BME280;33483;48.294;16.388;2023-03-11T10:33:56;98257.41;;;7.83;39.58
47726;BME280;33483;48.294;16.388;2023-03-11T10:36:28;98278.22;;;8.13;39.70
47726;BME280;33483;48.294;16.388;2023-03-11T10:39:01;98276.94;;;8.14;38.78
47726;BME280;33483;48.294;16.388;2023-03-11T10:44:17;98266.84;;;8.37;39.79
47726;BME280;33483;48.294;16.388;2023-03-11T10:46:45;98280.66;;;8.44;39.22
47726;BME280;33483;48.294;16.388;2023-03-11T10:49:14;98292.63;;;8.75;38.42
47726;BME280;33483;48.294;16.388;2023-03-11T10:51:43;98292.09;;;8.48;38.25
47726;BME280;33483;48.294;16.388;2023-03-11T10:56:54;98308.25;;;7.95;39.17
47726;BME280;33483;48.294;16.388;2023-03-11T10:59:32;98321.91;;;7.60;39.93
47726;BME280;33483;48.294;16.388;2023-03-11T11:04:48;98308.50;;;7.43;41.00
47726;BME280;33483;48.294;16.388;2023-03-11T11:07:29;98297.91;;;7.68;41.97
47726;BME280;33483;48.294;16.388;2023-03-11T11:10:31;98305.59;;;7.82;41.58
47726;BME280;33483;48.294;16.388;2023-03-11T11:15:28;98310.44;;;8.66;40.09
47726;BME280;33483;48.294;16.388;2023-03-11T11:17:57;98339.00;;;7.79;38.95
47726;BME280;33483;48.294;16.388;2023-03-11T11:20:25;98329.88;;;7.84;39.49
47726;BME280;33483;48.294;16.388;2023-03-11T11:22:57;98335.84;;;8.37;40.05
47726;BME280;33483;48.294;16.388;2023-03-11T11:25:29;98328.91;;;7.81;39.08
47726;BME280;33483;48.294;16.388;2023-03-11T11:28:01;98336.91;;;7.51;40.67
47726;BME280;33483;48.294;16.388;2023-03-11T11:30:28;98337.13;;;7.74;40.51
47726;BME280;33483;48.294;16.388;2023-03-11T11:32:55;98341.41;;;7.28;41.08
47726;BME280;33483;48.294;16.388;2023-03-11T11:35:23;98356.06;;;7.23;40.72
47726;BME280;33483;48.294;16.388;2023-03-11T11:37:54;98337.44;;;7.03;40.70
47726;BME280;33483;48.294;16.388;2023-03-11T11:45:28;98342.81;;;7.22;40.60
47726;BME280;33483;48.294;16.388;2023-03-11T11:48:00;98341.81;;;7.86;39.83
47726;BME280;33483;48.294;16.388;2023-03-11T11:50:31;98345.94;;;8.14;39.05
47726;BME280;33483;48.294;16.388;2023-03-11T11:55:43;98322.88;;;8.24;37.57
47726;BME280;33483;48.294;16.388;2023-03-11T11:58:12;98340.16;;;7.50;38.24
47726;BME280;33483;48.294;16.388;2023-03-11T12:05:56;98357.56;;;7.11;39.62
47726;BME280;33483;48.294;16.388;2023-03-11T12:11:05;98376.84;;;6.98;40.90
47726;BME280;33483;48.294;16.388;2023-03-11T12:18:48;98362.38;;;7.31;40.29
47726;BME280;33483;48.294;16.388;2023-03-11T12:26:36;98374.22;;;6.79;40.17
47726;BME280;33483;48.294;16.388;2023-03-11T12:31:44;98397.22;;;6.95;39.69
47726;BME280;33483;48.294;16.388;2023-03-11T12:34:13;98374.63;;;6.83;40.22
47726;BME280;33483;48.294;16.388;2023-03-11T12:36:43;98371.25;;;6.77;40.72
47726;BME280;33483;48.294;16.388;2023-03-11T12:39:21;98389.56;;;6.62;41.30
47726;BME280;33483;48.294;16.388;2023-03-11T12:44:51;98381.72;;;6.53;42.01
47726;BME280;33483;48.294;16.388;2023-03-11T12:47:20;98391.97;;;6.39;41.78
47726;BME280;33483;48.294;16.388;2023-03-11T12:49:49;98400.16;;;6.45;42.01
47726;BME280;33483;48.294;16.388;2023-03-11T12:52:19;98398.75;;;6.38;42.64
47726;BME280;33483;48.294;16.388;2023-03-11T12:54:48;98412.19;;;6.42;42.67
47726;BME280;33483;48.294;16.388;2023-03-11T12:57:39;98421.41;;;6.44;42.77
47726;BME280;33483;48.294;16.388;2023-03-11T13:03:29;98410.78;;;6.22;43.35
47726;BME280;33483;48.294;16.388;2023-03-11T13:06:03;98426.63;;;6.16;42.80
47726;BME280;33483;48.294;16.388;2023-03-11T13:13:52;98447.72;;;6.27;43.54
47726;BME280;33483;48.294;16.388;2023-03-11T13:18:48;98454.56;;;6.20;43.02
47726;BME280;33483;48.294;16.388;2023-03-11T13:21:39;98466.59;;;6.17;43.34
47726;BME280;33483;48.294;16.388;2023-03-11T13:42:25;98501.03;;;6.05;43.24
47726;BME280;33483;48.294;16.388;2023-03-11T13:44:54;98508.03;;;5.88;43.49
47726;BME280;33483;48.294;16.388;2023-03-11T13:47:22;98511.59;;;5.83;44.61
47726;BME280;33483;48.294;16.388;2023-03-11T13:50:00;98522.09;;;5.84;44.47
47726;BME280;33483;48.294;16.388;2023-03-11T13:52:33;98534.25;;;5.70;44.81
47726;BME280;33483;48.294;16.388;2023-03-11T13:57:29;98548.75;;;5.46;44.15
47726;BME280;33483;48.294;16.388;2023-03-11T14:00:03;98544.69;;;5.53;44.22
47726;BME280;33483;48.294;16.388;2023-03-11T14:05:49;98565.59;;;5.86;43.17
47726;BME280;33483;48.294;16.388;2023-03-11T14:10:50;98564.06;;;5.85;42.00
47726;BME280;33483;48.294;16.388;2023-03-11T14:13:18;98570.78;;;5.89;42.28
47726;BME280;33483;48.294;16.388;2023-03-11T14:20:52;98570.78;;;5.89;41.57
47726;BME280;33483;48.294;16.388;2023-03-11T14:23:19;98583.34;;;5.79;42.17
47726;BME280;33483;48.294;16.388;2023-03-11T14:25:56;98584.09;;;5.80;41.95
47726;BME280;33483;48.294;16.388;2023-03-11T14:28:23;98583.09;;;5.83;42.54
47726;BME280;33483;48.294;16.388;2023-03-11T14:30:56;98579.41;;;5.99;42.60
47726;BME280;33483;48.294;16.388;2023-03-11T14:33:24;98583.50;;;5.92;41.79
47726;BME280;33483;48.294;16.388;2023-03-11T14:38:20;98580.28;;;5.88;41.26
47726;BME280;33483;48.294;16.388;2023-03-11T14:40:51;98575.25;;;5.92;41.51
47726;BME280;33483;48.294;16.388;2023-03-11T14:43:21;98584.00;;;5.91;41.66
47726;BME280;33483;48.294;16.388;2023-03-11T14:45:48;98581.56;;;5.87;42.02
47726;BME280;33483;48.294;16.388;2023-03-11T14:48:31;98594.34;;;5.79;41.63
47726;BME280;33483;48.294;16.388;2023-03-11T14:51:01;98599.00;;;5.65;42.01
47726;BME280;33483;48.294;16.388;2023-03-11T14:53:39;98603.09;;;5.59;42.46
47726;BME280;33483;48.294;16.388;2023-03-11T14:56:27;98604.22;;;5.45;42.23
47726;BME280;33483;48.294;16.388;2023-03-11T15:01:37;98597.00;;;5.18;43.29
47726;BME280;33483;48.294;16.388;2023-03-11T15:04:09;98618.53;;;5.14;43.69
47726;BME280;33483;48.294;16.388;2023-03-11T15:06:38;98622.78;;;5.09;43.22
47726;BME280;33483;48.294;16.388;2023-03-11T15:09:07;98621.50;;;5.16;44.13
47726;BME280;33483;48.294;16.388;2023-03-11T15:11:44;98617.50;;;5.17;42.80